Terminal Aerodrome Forecast
Issued by NWS

Home | Current Version | Previous Version | Text Only | Print | Product List | Glossary On
Versions: 1 2 3 4 5 6 7 8 9 10 11 12 13 14 15 16 17 18 19 20 21 22 23 24 25 26 27 28 29
000
FTUS41 KBUF 180500
TAFIAG
TAF
KIAG 180532Z 1806/1906 18011KT P6SM BKN200
     FM181400 20009KT P6SM BKN080
     FM181800 24011KT P6SM OVC045
     FM182100 29008KT P6SM BKN050
     FM182300 24006KT P6SM BKN045
     FM190300 28004KT P6SM BKN050
     FM190500 31005KT P6SM BKN150=

USA.gov is the U.S. government's official web portal to all federal, state and local government web resources and services.